createdAt,value
2018-12-25T00:00:31.292Z,103706.05
2018-12-25T00:01:31.670Z,103704.71
2018-12-25T00:02:31.969Z,103703.88
2018-12-25T00:03:32.427Z,103702.33
2018-12-25T00:03:40.766Z,103690.13
2018-12-25T00:04:42.024Z,103689.22
2018-12-25T00:05:42.387Z,103688.80
2018-12-25T00:06:43.170Z,103688.39
2018-12-25T00:07:43.529Z,103687.73
2018-12-25T00:08:43.888Z,103687.50
2018-12-25T00:09:44.240Z,103688.27
2018-12-25T00:10:44.755Z,103688.98
2018-12-25T00:11:45.485Z,103689.92
2018-12-25T00:12:45.770Z,103690.42
2018-12-25T00:13:46.054Z,103691.25
2018-12-25T00:14:46.424Z,103691.48
2018-12-25T00:15:46.782Z,103691.81
2018-12-25T00:16:47.804Z,103692.31
2018-12-25T00:17:48.157Z,103692.75
2018-12-25T00:18:47.540Z,103693.59
2018-12-25T00:19:49.009Z,103694.28
2018-12-25T00:20:49.675Z,103694.79
2018-12-25T00:21:50.016Z,103694.90
2018-12-25T00:22:50.828Z,103695.28
2018-12-25T00:23:51.323Z,103695.48
2018-12-25T00:24:51.883Z,103695.37
2018-12-25T00:25:52.318Z,103695.35
2018-12-25T00:26:52.702Z,103695.06
2018-12-25T00:27:53.093Z,103695.17
2018-12-25T00:28:53.590Z,103695.22
2018-12-25T00:29:53.909Z,103695.87
2018-12-25T00:30:54.393Z,103695.24
2018-12-25T00:31:54.730Z,103695.02
2018-12-25T00:32:55.213Z,103695.02
2018-12-25T00:33:55.639Z,103694.96
2018-12-25T00:34:56.004Z,103695.06
2018-12-25T00:35:56.318Z,103695.67
2018-12-25T00:36:57.015Z,103695.94
2018-12-25T00:37:57.361Z,103696.66
2018-12-25T00:38:57.734Z,103697.20
2018-12-25T00:39:58.017Z,103698.07
2018-12-25T00:40:58.360Z,103698.78
2018-12-25T00:41:58.768Z,103700.06
2018-12-25T00:42:58.002Z,103701.36
2018-12-25T00:43:59.361Z,103702.91
2018-12-25T00:44:59.666Z,103703.52
2018-12-25T00:46:00.027Z,103704.12
2018-12-25T00:47:00.426Z,103704.73
2018-12-25T00:48:00.811Z,103705.17
2018-12-25T00:48:09.246Z,103707.52
2018-12-25T00:49:14.783Z,103707.08
2018-12-25T00:50:10.002Z,103707.41
2018-12-25T00:51:11.577Z,103707.31
2018-12-25T00:52:11.943Z,103707.20
2018-12-25T00:53:12.520Z,103708.14
2018-12-25T00:54:13.046Z,103708.73
2018-12-25T00:55:12.636Z,103709.08
2018-12-25T00:56:14.191Z,103709.73
2018-12-25T00:57:14.600Z,103710.84
2018-12-25T00:58:15.320Z,103712.51
2018-12-25T00:59:15.650Z,103713.11
2018-12-25T01:00:16.037Z,103714.44
2018-12-25T01:01:16.552Z,103715.88
2018-12-25T01:02:16.991Z,103716.66
2018-12-25T01:03:17.311Z,103717.83
2018-12-25T01:04:17.629Z,103719.11
2018-12-25T01:05:17.981Z,103719.61
2018-12-25T01:06:19.606Z,103721.13
2018-12-25T01:07:18.979Z,103721.13
2018-12-25T01:08:19.518Z,103721.81
2018-12-25T01:09:19.872Z,103722.47
2018-12-25T01:10:20.419Z,103723.27
2018-12-25T01:11:20.813Z,103723.26
2018-12-25T01:12:21.250Z,103723.59
2018-12-25T01:13:21.651Z,103723.92
2018-12-25T01:14:22.057Z,103723.76
2018-12-25T01:15:22.469Z,103724.02
2018-12-25T01:16:22.913Z,103724.20
2018-12-25T01:17:22.211Z,103723.91
2018-12-25T01:18:24.031Z,103723.24
2018-12-25T01:19:24.522Z,103722.45
2018-12-25T01:20:24.857Z,103722.06
2018-12-25T01:21:25.135Z,103720.91
2018-12-25T01:22:25.705Z,103720.02
2018-12-25T01:23:26.021Z,103718.82
2018-12-25T01:24:26.557Z,103717.59
2018-12-25T01:25:27.131Z,103716.81
2018-12-25T01:26:26.922Z,103716.02
2018-12-25T01:27:28.476Z,103714.91
2018-12-25T01:28:28.229Z,103714.28
2018-12-25T01:29:28.619Z,103714.56
2018-12-25T01:30:28.818Z,103714.17
2018-12-25T01:31:29.667Z,103714.37
2018-12-25T01:32:30.061Z,103714.86
2018-12-25T01:33:30.601Z,103715.63
2018-12-25T01:34:31.030Z,103716.23
2018-12-25T01:35:31.210Z,103716.84
2018-12-25T01:36:31.610Z,103717.61
2018-12-25T01:37:33.165Z,103717.55
2018-12-25T01:38:33.462Z,103717.53
2018-12-25T01:39:33.787Z,103717.03
2018-12-25T01:40:34.121Z,103716.74
2018-12-25T01:41:34.543Z,103716.31
2018-12-25T01:42:34.989Z,103715.25
2018-12-25T01:43:35.391Z,103714.19
2018-12-25T01:44:35.772Z,103713.69
2018-12-25T01:44:43.807Z,103701.45
2018-12-25T01:45:45.070Z,103701.02
2018-12-25T01:46:45.491Z,103701.78
2018-12-25T01:47:45.907Z,103702.18
2018-12-25T01:48:46.628Z,103702.81
2018-12-25T01:49:47.779Z,103703.80
2018-12-25T01:50:47.760Z,103705.20
2018-12-25T01:51:48.311Z,103706.69
2018-12-25T01:52:48.708Z,103707.81
2018-12-25T01:53:49.087Z,103708.70
2018-12-25T01:54:49.571Z,103709.59
2018-12-25T01:55:49.839Z,103710.73
2018-12-25T01:56:50.533Z,103711.28
2018-12-25T01:57:50.792Z,103711.94
2018-12-25T01:58:51.143Z,103712.94
2018-12-25T01:59:51.742Z,103713.50
2018-12-25T02:00:52.203Z,103714.23
2018-12-25T02:01:52.551Z,103714.96
2018-12-25T02:02:53.117Z,103716.30
2018-12-25T02:03:53.830Z,103716.89
2018-12-25T02:04:54.477Z,103717.89
2018-12-25T02:05:54.905Z,103719.28
2018-12-25T02:06:55.281Z,103720.01
2018-12-25T02:07:55.858Z,103720.47
2018-12-25T02:08:56.176Z,103721.85
2018-12-25T02:09:56.680Z,103722.31
2018-12-25T02:10:57.071Z,103722.94
2018-12-25T02:11:57.597Z,103723.72
2018-12-25T02:12:58.326Z,103724.28
2018-12-25T02:13:58.679Z,103724.95
2018-12-25T02:14:59.094Z,103725.41
2018-12-25T02:15:59.517Z,103726.16
2018-12-25T02:16:59.984Z,103725.69
2018-12-25T02:18:00.448Z,103726.09
2018-12-25T02:19:00.796Z,103726.58
2018-12-25T02:20:01.226Z,103727.14
2018-12-25T02:21:01.582Z,103727.38
2018-12-25T02:22:01.924Z,103727.44
2018-12-25T02:23:01.420Z,103727.77
2018-12-25T02:24:02.977Z,103728.09
2018-12-25T02:25:03.396Z,103728.66
2018-12-25T02:26:03.911Z,103728.98
2018-12-25T02:27:04.390Z,103729.65
2018-12-25T02:28:04.720Z,103730.75
2018-12-25T02:29:05.036Z,103731.31
2018-12-25T02:30:05.498Z,103732.42
2018-12-25T02:30:13.776Z,103749.17
2018-12-25T02:31:15.031Z,103749.02
2018-12-25T02:32:15.637Z,103749.01
2018-12-25T02:33:16.091Z,103748.64
2018-12-25T02:34:15.211Z,103747.97
2018-12-25T02:35:19.611Z,103747.63
2018-12-25T02:36:16.222Z,103747.36
2018-12-25T02:37:17.543Z,103747.25
2018-12-25T02:38:17.902Z,103746.91
2018-12-25T02:39:18.273Z,103746.48
2018-12-25T02:40:18.551Z,103745.78
2018-12-25T02:41:18.931Z,103745.95
2018-12-25T02:42:19.630Z,103745.45
2018-12-25T02:43:19.147Z,103745.28
2018-12-25T02:44:20.493Z,103745.48
2018-12-25T02:45:21.356Z,103744.98
2018-12-25T02:46:21.646Z,103744.98
2018-12-25T02:47:21.948Z,103744.82
2018-12-25T02:48:22.531Z,103744.98
2018-12-25T02:49:22.944Z,103745.09
2018-12-25T02:50:23.602Z,103745.09
2018-12-25T02:51:23.914Z,103744.92
2018-12-25T02:52:24.332Z,103745.16
2018-12-25T02:53:24.698Z,103745.30
2018-12-25T02:54:26.730Z,103745.47
2018-12-25T02:55:24.372Z,103745.30
2018-12-25T02:56:25.703Z,103745.62
2018-12-25T02:57:26.099Z,103745.52
2018-12-25T02:58:26.516Z,103745.89
2018-12-25T02:59:27.020Z,103745.99
2018-12-25T03:00:27.340Z,103746.22
2018-12-25T03:01:27.796Z,103746.19
2018-12-25T03:02:28.346Z,103746.17
2018-12-25T03:03:28.682Z,103745.74
2018-12-25T03:04:29.150Z,103745.91
2018-12-25T03:05:29.530Z,103745.84
2018-12-25T03:06:29.895Z,103745.34
2018-12-25T03:07:30.216Z,103745.12
2018-12-25T03:08:31.763Z,103744.69
2018-12-25T03:09:31.165Z,103744.13
2018-12-25T03:10:31.457Z,103744.06
2018-12-25T03:11:32.096Z,103743.27
2018-12-25T03:12:32.543Z,103742.72
2018-12-25T03:13:33.206Z,103742.48
2018-12-25T03:14:33.583Z,103742.20
2018-12-25T03:15:34.066Z,103742.14
2018-12-25T03:16:34.374Z,103741.42
2018-12-25T03:16:43.718Z,103732.92
2018-12-25T03:17:44.363Z,103732.42
2018-12-25T03:18:44.693Z,103731.86
2018-12-25T03:19:45.116Z,103730.97
2018-12-25T03:20:45.561Z,103730.30
2018-12-25T03:21:45.943Z,103730.41
2018-12-25T03:22:46.316Z,103729.58
2018-12-25T03:23:46.621Z,103728.91
2018-12-25T03:24:46.987Z,103727.91
2018-12-25T03:25:47.449Z,103726.98
2018-12-25T03:26:47.834Z,103726.64
2018-12-25T03:27:48.486Z,103726.08
2018-12-25T03:28:48.820Z,103725.38
2018-12-25T03:29:49.199Z,103724.27
2018-12-25T03:30:49.586Z,103723.56
2018-12-25T03:31:49.949Z,103722.45
2018-12-25T03:32:50.347Z,103721.52
2018-12-25T03:33:50.758Z,103720.35
2018-12-25T03:34:51.657Z,103719.09
2018-12-25T03:35:50.927Z,103717.42
2018-12-25T03:36:52.543Z,103716.92
2018-12-25T03:37:52.939Z,103716.42
2018-12-25T03:38:53.212Z,103715.81
2018-12-25T03:39:53.775Z,103715.75
2018-12-25T03:40:54.397Z,103714.92
2018-12-25T03:41:54.800Z,103714.42
2018-12-25T03:42:55.153Z,103713.59
2018-12-25T03:43:55.622Z,103713.27
2018-12-25T03:44:55.048Z,103712.77
2018-12-25T03:45:55.385Z,103712.59
2018-12-25T03:46:56.807Z,103711.70
2018-12-25T03:47:57.153Z,103711.09
2018-12-25T03:48:57.517Z,103709.73
2018-12-25T03:49:58.097Z,103708.56
2018-12-25T03:50:58.453Z,103708.28
2018-12-25T03:51:59.138Z,103706.75
2018-12-25T03:52:59.654Z,103705.97
2018-12-25T03:53:58.870Z,103705.47
2018-12-25T03:55:00.406Z,103704.94
2018-12-25T03:56:00.699Z,103704.09
2018-12-25T03:57:01.186Z,103703.12
2018-12-25T03:58:01.658Z,103703.45
2018-12-25T03:59:02.147Z,103702.61
2018-12-25T04:00:02.534Z,103702.18
2018-12-25T04:01:02.899Z,103701.64
2018-12-25T04:02:03.196Z,103701.64
2018-12-25T04:03:03.566Z,103701.86
2018-12-25T04:04:03.910Z,103702.16
2018-12-25T04:04:12.312Z,103708.63
2018-12-25T04:05:13.621Z,103708.03
2018-12-25T04:06:14.007Z,103707.70
2018-12-25T04:07:14.380Z,103706.93
2018-12-25T04:08:15.832Z,103706.36
2018-12-25T04:09:14.009Z,103705.53
2018-12-25T04:10:15.390Z,103703.77
2018-12-25T04:11:15.798Z,103703.44
2018-12-25T04:12:16.150Z,103702.66
2018-12-25T04:13:16.795Z,103702.39
2018-12-25T04:14:17.107Z,103702.13
2018-12-25T04:15:17.463Z,103700.72
2018-12-25T04:16:17.930Z,103699.56
2018-12-25T04:17:18.281Z,103698.73
2018-12-25T04:18:18.734Z,103697.23
2018-12-25T04:19:19.118Z,103696.23
2018-12-25T04:20:20.050Z,103695.34
2018-12-25T04:21:19.257Z,103694.34
2018-12-25T04:22:20.567Z,103693.67
2018-12-25T04:23:21.148Z,103692.28
2018-12-25T04:24:21.531Z,103691.19
2018-12-25T04:25:21.822Z,103690.02
2018-12-25T04:26:22.401Z,103688.79
2018-12-25T04:27:22.782Z,103688.19
2018-12-25T04:28:23.465Z,103686.75
2018-12-25T04:29:23.789Z,103685.42
2018-12-25T04:30:24.117Z,103684.09
2018-12-25T04:31:24.505Z,103683.36
2018-12-25T04:32:24.885Z,103681.86
2018-12-25T04:33:25.521Z,103680.37
2018-12-25T04:34:25.953Z,103678.94
2018-12-25T04:35:26.404Z,103677.83
2018-12-25T04:36:26.792Z,103676.34
2018-12-25T04:37:27.467Z,103676.06
2018-12-25T04:38:27.832Z,103675.06
2018-12-25T04:39:28.246Z,103674.23
2018-12-25T04:40:28.716Z,103673.80
2018-12-25T04:41:29.116Z,103673.13
2018-12-25T04:42:29.414Z,103673.07
2018-12-25T04:43:29.930Z,103673.50
2018-12-25T04:44:30.421Z,103674.28
2018-12-25T04:45:30.746Z,103674.81
2018-12-25T04:46:31.273Z,103675.16
2018-12-25T04:47:32.054Z,103675.02
2018-12-25T04:48:32.805Z,103675.19
2018-12-25T04:49:33.199Z,103675.19
2018-12-25T04:49:41.278Z,103673.33
2018-12-25T04:50:42.723Z,103672.77
2018-12-25T04:51:43.168Z,103673.27
2018-12-25T04:52:43.910Z,103673.27
2018-12-25T04:53:44.309Z,103674.27
2018-12-25T04:54:44.662Z,103674.87
2018-12-25T04:55:44.996Z,103676.37
2018-12-25T04:56:45.327Z,103676.97
2018-12-25T04:57:45.815Z,103678.30
2018-12-25T04:58:46.266Z,103679.67
2018-12-25T04:59:47.237Z,103681.11
2018-12-25T05:00:47.602Z,103682.15
2018-12-25T05:01:47.892Z,103682.81
2018-12-25T05:02:48.303Z,103683.48
2018-12-25T05:03:48.690Z,103684.03
2018-12-25T05:04:49.097Z,103684.80
2018-12-25T05:05:49.473Z,103685.34
2018-12-25T05:06:49.871Z,103685.23
2018-12-25T05:07:50.219Z,103685.28
2018-12-25T05:08:50.511Z,103685.05
2018-12-25T05:09:50.898Z,103685.38
2018-12-25T05:10:51.346Z,103685.55
2018-12-25T05:11:51.765Z,103685.48
2018-12-25T05:12:52.112Z,103686.09
2018-12-25T05:13:52.584Z,103686.47
2018-12-25T05:14:52.946Z,103686.80
2018-12-25T05:15:53.366Z,103687.34
2018-12-25T05:16:53.689Z,103687.01
2018-12-25T05:17:54.095Z,103687.62
2018-12-25T05:18:54.465Z,103687.38
2018-12-25T05:19:54.805Z,103686.98
2018-12-25T05:20:55.435Z,103686.99
2018-12-25T05:21:55.813Z,103687.09
2018-12-25T05:22:56.497Z,103686.86
2018-12-25T05:23:56.885Z,103686.54
2018-12-25T05:24:57.318Z,103686.31
2018-12-25T05:25:58.278Z,103686.28
2018-12-25T05:26:58.673Z,103686.22
2018-12-25T05:27:59.063Z,103686.83
2018-12-25T05:28:59.419Z,103687.27
2018-12-25T05:29:59.733Z,103687.70
2018-12-25T05:31:00.081Z,103687.81
2018-12-25T05:32:00.401Z,103688.02
2018-12-25T05:33:00.727Z,103688.45
2018-12-25T05:34:01.143Z,103688.99
2018-12-25T05:35:01.465Z,103688.67
2018-12-25T05:35:09.898Z,103686.05
2018-12-25T05:36:10.533Z,103685.45
2018-12-25T05:37:11.098Z,103685.11
2018-12-25T05:38:11.376Z,103684.45
2018-12-25T05:39:11.761Z,103683.61
2018-12-25T05:40:12.075Z,103682.62
2018-12-25T05:41:12.451Z,103681.72
2018-12-25T05:42:12.804Z,103681.16
2018-12-25T05:43:14.134Z,103680.77
2018-12-25T05:44:13.465Z,103679.77
2018-12-25T05:45:13.825Z,103678.66
2018-12-25T05:46:14.188Z,103677.70
2018-12-25T05:47:14.723Z,103676.71
2018-12-25T05:48:15.150Z,103676.09
2018-12-25T05:49:15.678Z,103674.69
2018-12-25T05:50:16.043Z,103673.23
2018-12-25T05:51:16.441Z,103672.27
2018-12-25T05:52:16.780Z,103671.45
2018-12-25T05:53:17.361Z,103670.87
2018-12-25T05:54:17.918Z,103670.38
2018-12-25T05:55:19.439Z,103669.22
2018-12-25T05:56:17.633Z,103669.16
2018-12-25T05:57:19.027Z,103668.55
2018-12-25T05:58:19.517Z,103668.05
2018-12-25T05:59:19.989Z,103667.34
2018-12-25T06:00:20.849Z,103667.01
2018-12-25T06:01:21.332Z,103666.67
2018-12-25T06:02:21.845Z,103665.70
2018-12-25T06:03:22.261Z,103664.70
2018-12-25T06:04:23.312Z,103664.09
2018-12-25T06:05:22.631Z,103663.33
2018-12-25T06:06:23.981Z,103662.79
2018-12-25T06:07:24.391Z,103662.45
2018-12-25T06:08:24.763Z,103662.28
2018-12-25T06:09:25.236Z,103662.18
2018-12-25T06:10:26.051Z,103661.58
2018-12-25T06:11:26.497Z,103661.80
2018-12-25T06:12:26.982Z,103661.27
2018-12-25T06:13:28.378Z,103661.37
2018-12-25T06:14:27.890Z,103660.93
2018-12-25T06:15:27.162Z,103661.10
2018-12-25T06:16:28.590Z,103661.03
2018-12-25T06:17:29.061Z,103661.20
2018-12-25T06:18:29.732Z,103661.60
2018-12-25T06:19:30.126Z,103661.77
2018-12-25T06:20:30.584Z,103661.33
2018-12-25T06:21:31.005Z,103661.39
2018-12-25T06:22:31.381Z,103661.55
2018-12-25T06:22:39.940Z,103672.14
2018-12-25T06:23:41.338Z,103671.38
2018-12-25T06:24:41.741Z,103671.05
2018-12-25T06:25:42.112Z,103671.75
2018-12-25T06:26:42.465Z,103671.52
2018-12-25T06:27:42.760Z,103672.19
2018-12-25T06:28:43.409Z,103672.45
2018-12-25T06:29:43.865Z,103673.52
2018-12-25T06:30:44.283Z,103673.69
2018-12-25T06:31:44.627Z,103674.29
2018-12-25T06:32:44.928Z,103674.73
2018-12-25T06:33:45.583Z,103675.00
2018-12-25T06:34:45.953Z,103675.50
2018-12-25T06:35:46.298Z,103676.10
2018-12-25T06:36:46.647Z,103676.53
2018-12-25T06:37:46.985Z,103676.94
2018-12-25T06:38:47.408Z,103676.70
2018-12-25T06:39:47.751Z,103676.80
2018-12-25T06:40:48.064Z,103677.48
2018-12-25T06:41:48.451Z,103677.84
2018-12-25T06:42:49.108Z,103678.19
2018-12-25T06:43:49.548Z,103678.79
2018-12-25T06:44:49.122Z,103679.33
2018-12-25T06:45:50.395Z,103679.50
2018-12-25T06:46:50.985Z,103679.87
2018-12-25T06:47:51.313Z,103680.47
2018-12-25T06:48:51.799Z,103680.84
2018-12-25T06:49:52.107Z,103680.95
2018-12-25T06:50:52.461Z,103681.66
2018-12-25T06:51:52.955Z,103682.53
2018-12-25T06:52:53.399Z,103682.97
2018-12-25T06:53:53.978Z,103683.91
2018-12-25T06:54:54.758Z,103684.28
2018-12-25T06:55:55.074Z,103684.37
2018-12-25T06:56:55.444Z,103684.95
2018-12-25T06:57:55.728Z,103684.62
2018-12-25T06:58:56.222Z,103684.55
2018-12-25T06:59:56.578Z,103684.48
2018-12-25T07:00:56.987Z,103684.22
2018-12-25T07:01:57.494Z,103683.99
2018-12-25T07:02:57.870Z,103683.77
2018-12-25T07:03:58.224Z,103683.36
2018-12-25T07:04:58.565Z,103682.53
2018-12-25T07:05:59.001Z,103681.70
2018-12-25T07:06:58.427Z,103680.37
2018-12-25T07:07:59.770Z,103679.20
2018-12-25T07:08:08.114Z,103670.16
2018-12-25T07:09:09.588Z,103669.42
2018-12-25T07:10:10.171Z,103669.32
2018-12-25T07:11:10.720Z,103668.92
2018-12-25T07:12:11.324Z,103668.95
2018-12-25T07:13:11.595Z,103668.17
2018-12-25T07:14:12.056Z,103668.23
2018-12-25T07:15:12.519Z,103668.07
2018-12-25T07:16:12.891Z,103668.06
2018-12-25T07:17:13.188Z,103667.70
2018-12-25T07:18:13.808Z,103667.43
2018-12-25T07:19:14.513Z,103667.36
2018-12-25T07:20:14.965Z,103667.25
2018-12-25T07:21:15.609Z,103667.09
2018-12-25T07:22:15.988Z,103667.03
2018-12-25T07:23:16.595Z,103666.93
2018-12-25T07:24:16.924Z,103666.63
2018-12-25T07:25:17.346Z,103666.23
2018-12-25T07:26:17.776Z,103666.05
2018-12-25T07:27:18.214Z,103665.92
2018-12-25T07:28:18.571Z,103665.70
2018-12-25T07:29:18.924Z,103665.47
2018-12-25T07:30:19.248Z,103665.23
2018-12-25T07:31:19.737Z,103664.61
2018-12-25T07:32:20.129Z,103664.94
2018-12-25T07:33:20.533Z,103664.84
2018-12-25T07:34:21.142Z,103664.84
2018-12-25T07:35:21.522Z,103665.23
2018-12-25T07:36:21.955Z,103665.57
2018-12-25T07:37:22.340Z,103665.91
2018-12-25T07:38:22.708Z,103665.57
2018-12-25T07:39:22.964Z,103665.80
2018-12-25T07:40:23.328Z,103666.07
2018-12-25T07:41:23.819Z,103666.01
2018-12-25T07:42:24.163Z,103666.17
2018-12-25T07:43:24.515Z,103665.57
2018-12-25T07:44:24.836Z,103666.07
2018-12-25T07:45:25.264Z,103665.30
2018-12-25T07:46:25.661Z,103664.91
2018-12-25T07:47:26.020Z,103664.30
2018-12-25T07:48:26.415Z,103663.20
2018-12-25T07:49:26.760Z,103662.53
2018-12-25T07:50:27.629Z,103662.37
2018-12-25T07:51:27.980Z,103660.87
2018-12-25T07:52:28.441Z,103659.80
2018-12-25T07:53:28.796Z,103658.80
2018-12-25T07:53:37.114Z,103653.20
2018-12-25T07:54:38.368Z,103653.59
2018-12-25T07:55:38.981Z,103653.77
2018-12-25T07:56:39.343Z,103653.44
2018-12-25T07:57:39.777Z,103653.44
2018-12-25T07:58:40.182Z,103652.70
2018-12-25T07:59:40.576Z,103652.77
2018-12-25T08:00:41.035Z,103652.77
2018-12-25T08:01:41.316Z,103652.23
2018-12-25T08:02:41.597Z,103651.83
2018-12-25T08:03:41.891Z,103651.56
2018-12-25T08:04:42.641Z,103651.23
2018-12-25T08:05:43.023Z,103651.06
2018-12-25T08:06:43.467Z,103650.06
2018-12-25T08:07:43.907Z,103649.80
2018-12-25T08:08:44.371Z,103650.22
2018-12-25T08:09:43.649Z,103649.36
2018-12-25T08:10:45.270Z,103648.85
2018-12-25T08:11:45.799Z,103648.42
2018-12-25T08:12:46.238Z,103647.58
2018-12-25T08:13:46.756Z,103646.92
2018-12-25T08:14:47.357Z,103646.19
2018-12-25T08:15:47.647Z,103645.56
2018-12-25T08:16:48.050Z,103645.17
2018-12-25T08:17:48.417Z,103644.56
2018-12-25T08:18:48.844Z,103644.61
2018-12-25T08:19:49.214Z,103644.54
2018-12-25T08:20:49.579Z,103644.38
2018-12-25T08:21:49.974Z,103645.05
2018-12-25T08:22:50.469Z,103645.25
2018-12-25T08:23:50.927Z,103645.15
2018-12-25T08:24:51.900Z,103645.69
2018-12-25T08:25:52.861Z,103645.78
2018-12-25T08:26:53.298Z,103645.69
2018-12-25T08:27:54.043Z,103646.06
2018-12-25T08:28:54.445Z,103646.83
2018-12-25T08:29:54.933Z,103647.44
2018-12-25T08:30:55.478Z,103647.80
2018-12-25T08:31:56.015Z,103648.41
2018-12-25T08:32:56.341Z,103648.02
2018-12-25T08:33:56.667Z,103648.12
2018-12-25T08:34:57.033Z,103648.22
2018-12-25T08:35:57.487Z,103648.20
2018-12-25T08:36:58.027Z,103648.03
2018-12-25T08:37:58.473Z,103648.14
2018-12-25T08:38:58.971Z,103648.17
2018-12-25T08:39:59.520Z,103648.28
2018-12-25T08:40:08.553Z,103649.21
2018-12-25T08:41:09.110Z,103648.61
2018-12-25T08:42:09.444Z,103648.61
2018-12-25T08:43:09.841Z,103648.05
2018-12-25T08:44:10.189Z,103647.31
2018-12-25T08:45:10.584Z,103647.09
2018-12-25T08:46:11.356Z,103646.52
2018-12-25T08:47:13.174Z,103646.46
2018-12-25T08:48:12.515Z,103645.80
2018-12-25T08:49:12.903Z,103646.44
2018-12-25T08:50:13.341Z,103646.27
2018-12-25T08:51:13.687Z,103646.14
2018-12-25T08:52:14.558Z,103647.19
2018-12-25T08:53:15.101Z,103647.29
2018-12-25T08:54:15.705Z,103647.66
2018-12-25T08:55:16.104Z,103648.27
2018-12-25T08:56:16.868Z,103649.13
2018-12-25T08:57:17.352Z,103649.23
2018-12-25T08:58:17.967Z,103649.50
2018-12-25T08:59:18.359Z,103650.15
2018-12-25T09:00:18.495Z,103650.58
2018-12-25T09:01:19.126Z,103651.45
2018-12-25T09:02:19.688Z,103652.06
2018-12-25T09:03:19.107Z,103652.16
2018-12-25T09:04:20.531Z,103652.87
2018-12-25T09:05:20.979Z,103653.58
2018-12-25T09:06:21.421Z,103654.34
2018-12-25T09:07:21.816Z,103655.15
2018-12-25T09:08:22.425Z,103656.09
2018-12-25T09:09:22.786Z,103657.52
2018-12-25T09:10:23.264Z,103658.30
2018-12-25T09:11:24.221Z,103660.06
2018-12-25T09:12:24.654Z,103661.87
2018-12-25T09:13:25.007Z,103663.64
2018-12-25T09:14:25.349Z,103665.23
2018-12-25T09:15:25.746Z,103666.24
2018-12-25T09:16:26.190Z,103667.37
2018-12-25T09:17:26.683Z,103668.81
2018-12-25T09:18:26.103Z,103670.09
2018-12-25T09:19:27.503Z,103671.30
2018-12-25T09:20:27.889Z,103672.50
2018-12-25T09:21:28.216Z,103673.94
2018-12-25T09:22:28.872Z,103675.41
2018-12-25T09:23:29.227Z,103676.88
2018-12-25T09:24:29.696Z,103678.32
2018-12-25T09:25:30.124Z,103679.90
2018-12-25T09:25:38.498Z,103710.97
2018-12-25T09:26:39.887Z,103710.70
2018-12-25T09:27:40.250Z,103710.53
2018-12-25T09:28:40.669Z,103710.97
2018-12-25T09:29:41.241Z,103710.97
2018-12-25T09:30:41.622Z,103710.20
2018-12-25T09:31:42.114Z,103710.47
2018-12-25T09:32:42.535Z,103710.37
2018-12-25T09:33:42.920Z,103710.53
2018-12-25T09:34:43.271Z,103710.64
2018-12-25T09:35:43.612Z,103710.14
2018-12-25T09:36:44.030Z,103709.57
2018-12-25T09:37:44.403Z,103709.17
2018-12-25T09:38:44.719Z,103709.81
2018-12-25T09:39:45.111Z,103709.85
2018-12-25T09:40:45.481Z,103710.05
2018-12-25T09:41:46.098Z,103710.80
2018-12-25T09:42:46.502Z,103710.61
2018-12-25T09:43:47.013Z,103711.28
2018-12-25T09:44:47.393Z,103711.25
2018-12-25T09:45:47.758Z,103711.13
2018-12-25T09:46:48.152Z,103711.87
2018-12-25T09:47:48.547Z,103711.74
2018-12-25T09:48:48.873Z,103712.08
2018-12-25T09:49:49.150Z,103711.85
2018-12-25T09:50:49.486Z,103711.66
2018-12-25T09:51:54.484Z,103711.29
2018-12-25T09:52:49.653Z,103710.06
2018-12-25T09:53:51.111Z,103708.86
2018-12-25T09:54:51.522Z,103707.84
2018-12-25T09:55:51.879Z,103706.77
2018-12-25T09:56:52.330Z,103704.91
2018-12-25T09:57:52.667Z,103704.08
2018-12-25T09:58:53.012Z,103702.28
2018-12-25T09:59:53.368Z,103700.85
2018-12-25T10:00:53.736Z,103699.59
2018-12-25T10:01:54.111Z,103698.16
2018-12-25T10:02:54.768Z,103697.06
2018-12-25T10:03:55.107Z,103695.30
2018-12-25T10:04:56.649Z,103693.50
2018-12-25T10:05:55.141Z,103691.84
2018-12-25T10:06:56.599Z,103689.73
2018-12-25T10:07:57.258Z,103688.11
2018-12-25T10:08:56.514Z,103686.58
2018-12-25T10:09:57.865Z,103685.11
2018-12-25T10:10:58.335Z,103684.01
2018-12-25T10:11:06.677Z,103668.14
2018-12-25T10:12:08.148Z,103667.30
2018-12-25T10:13:08.712Z,103666.23
2018-12-25T10:14:08.088Z,103665.64
2018-12-25T10:15:09.407Z,103665.13
2018-12-25T10:16:09.815Z,103664.36
2018-12-25T10:17:10.396Z,103664.43
2018-12-25T10:18:10.707Z,103664.59
2018-12-25T10:19:11.137Z,103664.66
2018-12-25T10:20:11.533Z,103664.56
2018-12-25T10:21:11.891Z,103664.56
2018-12-25T10:22:12.274Z,103665.13
2018-12-25T10:23:12.683Z,103664.94
2018-12-25T10:24:13.002Z,103665.27
2018-12-25T10:25:13.783Z,103664.90
2018-12-25T10:26:14.172Z,103665.16
2018-12-25T10:27:14.506Z,103665.23
2018-12-25T10:28:15.319Z,103664.46
2018-12-25T10:29:15.684Z,103665.09
2018-12-25T10:30:16.337Z,103665.50
2018-12-25T10:31:16.830Z,103665.13
2018-12-25T10:32:17.428Z,103664.66
2018-12-25T10:33:16.822Z,103664.53
2018-12-25T10:34:18.250Z,103664.69
2018-12-25T10:35:18.670Z,103664.83
2018-12-25T10:36:19.009Z,103664.69
2018-12-25T10:37:19.569Z,103664.92
2018-12-25T10:38:20.081Z,103664.69
2018-12-25T10:39:20.659Z,103664.92
2018-12-25T10:40:21.348Z,103664.89
2018-12-25T10:41:21.852Z,103665.86
2018-12-25T10:42:22.266Z,103665.62
2018-12-25T10:43:23.269Z,103666.35
2018-12-25T10:44:23.853Z,103667.16
2018-12-25T10:45:24.507Z,103667.19
2018-12-25T10:46:25.131Z,103667.08
2018-12-25T10:47:25.563Z,103666.61
2018-12-25T10:48:26.027Z,103665.91
2018-12-25T10:49:26.381Z,103665.38
2018-12-25T10:50:27.166Z,103664.67
2018-12-25T10:51:27.482Z,103664.07
2018-12-25T10:52:27.924Z,103663.20
2018-12-25T10:53:28.431Z,103663.33
2018-12-25T10:54:28.796Z,103662.03
2018-12-25T10:55:29.136Z,103660.66
2018-12-25T10:56:29.547Z,103659.45
2018-12-25T10:57:30.063Z,103658.36
2018-12-25T10:57:38.449Z,103641.31
2018-12-25T10:58:39.742Z,103640.88
2018-12-25T10:59:41.077Z,103640.71
2018-12-25T11:00:40.454Z,103640.11
2018-12-25T11:01:41.023Z,103640.61
2018-12-25T11:02:41.399Z,103640.57
2018-12-25T11:03:41.780Z,103639.91
2018-12-25T11:04:42.131Z,103640.20
2018-12-25T11:05:42.430Z,103640.03
2018-12-25T11:06:43.183Z,103639.84
2018-12-25T11:07:43.806Z,103640.44
2018-12-25T11:08:44.159Z,103640.34
2018-12-25T11:09:44.504Z,103640.40
2018-12-25T11:10:44.839Z,103639.40
2018-12-25T11:11:45.163Z,103638.73
2018-12-25T11:12:45.567Z,103638.56
2018-12-25T11:13:45.911Z,103637.46
2018-12-25T11:14:46.547Z,103637.13
2018-12-25T11:15:47.047Z,103636.30
2018-12-25T11:16:47.463Z,103635.73